EJU19PK LIRN-LIEO
Flight info
| Callsign | EJU19PK |
|---|---|
| Flight time | 0h 52m |
| Altitude | 37000 |
| Route | EDOPA DCT TAGEL DCT ROXAN/N0441F390 DCT ATNET |
| Aircraft | A20N/M-SDE2E3FGHIRWXY/LB1 |
Departure
| Time | 2026-05-08 16:37 |
|---|---|
| Airport | Naples International Airport (LIRN) |
Arrival
| Time | 2026-05-08 17:29 |
|---|---|
| Airport | Olbia Costa Smeralda Airport (LIEO) |
| Time | Latitude | Longitude | Altitude | Speed | Heading |
|---|---|---|---|---|---|
| 2026-05-08 16:07 | 40.87881 | 14.28284 | 290 ft | 0 kts | 187° |
| 2026-05-08 16:26 | 40.87881 | 14.28285 | 291 ft | 0 kts | 187° |
| 2026-05-08 16:28 | 40.87888 | 14.28286 | 291 ft | 2 kts | 187° |
| 2026-05-08 16:28 | 40.87902 | 14.28288 | 290 ft | 2 kts | 187° |
| 2026-05-08 16:28 | 40.87917 | 14.28291 | 290 ft | 2 kts | 187° |
| 2026-05-08 16:29 | 40.87933 | 14.28294 | 290 ft | 2 kts | 170° |
| 2026-05-08 16:29 | 40.87946 | 14.28285 | 290 ft | 2 kts | 133° |
| 2026-05-08 16:29 | 40.87953 | 14.28267 | 290 ft | 2 kts | 98° |
| 2026-05-08 16:29 | 40.87954 | 14.28248 | 290 ft | 1 kts | 97° |
| 2026-05-08 16:30 | 40.87954 | 14.28245 | 290 ft | 0 kts | 99° |
| 2026-05-08 16:32 | 40.87954 | 14.28253 | 290 ft | 3 kts | 96° |
| 2026-05-08 16:32 | 40.87949 | 14.28301 | 290 ft | 9 kts | 97° |
| 2026-05-08 16:33 | 40.87938 | 14.28410 | 288 ft | 11 kts | 96° |
| 2026-05-08 16:33 | 40.87968 | 14.28494 | 286 ft | 12 kts | 38° |
| 2026-05-08 16:33 | 40.88034 | 14.28586 | 284 ft | 15 kts | 52° |
| 2026-05-08 16:33 | 40.88108 | 14.28715 | 281 ft | 20 kts | 52° |
| 2026-05-08 16:34 | 40.88213 | 14.28898 | 275 ft | 28 kts | 51° |
| 2026-05-08 16:34 | 40.88340 | 14.29112 | 269 ft | 30 kts | 55° |
| 2026-05-08 16:34 | 40.88467 | 14.29337 | 262 ft | 30 kts | 52° |
| 2026-05-08 16:34 | 40.88598 | 14.29562 | 255 ft | 31 kts | 52° |
| 2026-05-08 16:35 | 40.88710 | 14.29757 | 249 ft | 26 kts | 53° |
| 2026-05-08 16:35 | 40.88822 | 14.29956 | 243 ft | 27 kts | 53° |
| 2026-05-08 16:35 | 40.88895 | 14.30079 | 240 ft | 14 kts | 51° |
| 2026-05-08 16:35 | 40.88948 | 14.30167 | 238 ft | 10 kts | 44° |
| 2026-05-08 16:36 | 40.89000 | 14.30170 | 237 ft | 7 kts | 334° |
| 2026-05-08 16:36 | 40.89050 | 14.30129 | 237 ft | 8 kts | 328° |
| 2026-05-08 16:36 | 40.89078 | 14.30096 | 238 ft | 5 kts | 286° |
| 2026-05-08 16:36 | 40.89053 | 14.30027 | 238 ft | 21 kts | 237° |
| 2026-05-08 16:37 | 40.88821 | 14.29538 | 253 ft | 101 kts | 238° |
| 2026-05-08 16:37 | 40.88327 | 14.28495 | 300 ft | 160 kts | 238° |
| 2026-05-08 16:37 | 40.87683 | 14.27278 | 908 ft | 165 kts | 221° |
| 2026-05-08 16:37 | 40.86644 | 14.26714 | 1608 ft | 171 kts | 182° |
| 2026-05-08 16:38 | 40.85451 | 14.26746 | 2357 ft | 176 kts | 177° |
| 2026-05-08 16:38 | 40.84190 | 14.26813 | 2922 ft | 193 kts | 175° |
| 2026-05-08 16:38 | 40.82822 | 14.26947 | 3628 ft | 202 kts | 173° |
| 2026-05-08 16:38 | 40.81414 | 14.27147 | 4428 ft | 206 kts | 171° |
| 2026-05-08 16:39 | 40.80016 | 14.27351 | 5263 ft | 207 kts | 172° |
| 2026-05-08 16:39 | 40.78582 | 14.27557 | 6088 ft | 209 kts | 172° |
| 2026-05-08 16:39 | 40.77138 | 14.27764 | 6886 ft | 212 kts | 173° |
| 2026-05-08 16:39 | 40.75686 | 14.27661 | 7614 ft | 217 kts | 201° |
| 2026-05-08 16:40 | 40.74572 | 14.26408 | 8420 ft | 215 kts | 238° |
| 2026-05-08 16:40 | 40.73773 | 14.24689 | 8971 ft | 231 kts | 241° |
| 2026-05-08 16:40 | 40.72895 | 14.22777 | 9415 ft | 253 kts | 240° |
| 2026-05-08 16:40 | 40.71954 | 14.20737 | 9973 ft | 271 kts | 240° |
| 2026-05-08 16:41 | 40.70942 | 14.18552 | 10528 ft | 289 kts | 240° |
| 2026-05-08 16:41 | 40.69872 | 14.16247 | 11058 ft | 307 kts | 240° |
| 2026-05-08 16:41 | 40.68735 | 14.13805 | 11771 ft | 317 kts | 240° |
| 2026-05-08 16:42 | 40.66427 | 14.08852 | 13492 ft | 325 kts | 240° |
| 2026-05-08 16:42 | 40.65219 | 14.06259 | 13938 ft | 342 kts | 240° |
| 2026-05-08 16:42 | 40.63941 | 14.03521 | 14283 ft | 360 kts | 240° |
| 2026-05-08 16:42 | 40.62609 | 14.00670 | 14583 ft | 377 kts | 240° |
| 2026-05-08 16:43 | 40.61202 | 13.97658 | 14942 ft | 391 kts | 240° |
| 2026-05-08 16:43 | 40.59780 | 13.94621 | 15553 ft | 396 kts | 240° |
| 2026-05-08 16:43 | 40.58329 | 13.91530 | 16288 ft | 398 kts | 240° |
| 2026-05-08 16:43 | 40.56873 | 13.88429 | 16989 ft | 400 kts | 241° |
| 2026-05-08 16:44 | 40.55415 | 13.85326 | 17642 ft | 402 kts | 241° |
| 2026-05-08 16:44 | 40.53944 | 13.82191 | 18262 ft | 405 kts | 241° |
| 2026-05-08 16:44 | 40.52467 | 13.79045 | 18897 ft | 408 kts | 241° |
| 2026-05-08 16:44 | 40.50972 | 13.75871 | 19527 ft | 409 kts | 242° |
| 2026-05-08 16:45 | 40.49472 | 13.72687 | 20113 ft | 412 kts | 242° |
| 2026-05-08 16:45 | 40.47981 | 13.69525 | 20671 ft | 400 kts | 242° |
| 2026-05-08 16:45 | 40.46584 | 13.66580 | 21224 ft | 370 kts | 242° |
| 2026-05-08 16:45 | 40.45265 | 13.63802 | 21796 ft | 351 kts | 243° |
| 2026-05-08 16:46 | 40.43988 | 13.61091 | 22371 ft | 349 kts | 243° |
| 2026-05-08 16:46 | 40.42716 | 13.58391 | 22944 ft | 351 kts | 243° |
| 2026-05-08 16:46 | 40.41441 | 13.55690 | 23520 ft | 353 kts | 243° |
| 2026-05-08 16:46 | 40.40138 | 13.52931 | 24109 ft | 356 kts | 243° |
| 2026-05-08 16:47 | 40.38842 | 13.50197 | 24692 ft | 358 kts | 243° |
| 2026-05-08 16:47 | 40.37519 | 13.47409 | 25287 ft | 361 kts | 243° |
| 2026-05-08 16:47 | 40.36190 | 13.44613 | 25884 ft | 362 kts | 243° |
| 2026-05-08 16:47 | 40.34870 | 13.41840 | 26473 ft | 363 kts | 243° |
| 2026-05-08 16:48 | 40.33540 | 13.39048 | 27064 ft | 364 kts | 243° |
| 2026-05-08 16:48 | 40.32197 | 13.36228 | 27663 ft | 364 kts | 244° |
| 2026-05-08 16:48 | 40.31170 | 13.33247 | 28254 ft | 358 kts | 257° |
| 2026-05-08 16:48 | 40.30794 | 13.30090 | 28852 ft | 354 kts | 269° |
| 2026-05-08 16:49 | 40.31023 | 13.26917 | 29449 ft | 353 kts | 282° |
| 2026-05-08 16:49 | 40.31752 | 13.23834 | 30066 ft | 353 kts | 287° |
| 2026-05-08 16:49 | 40.32536 | 13.20837 | 30677 ft | 351 kts | 287° |
| 2026-05-08 16:49 | 40.33331 | 13.17800 | 31298 ft | 350 kts | 286° |
| 2026-05-08 16:50 | 40.34110 | 13.14832 | 31914 ft | 347 kts | 286° |
| 2026-05-08 16:50 | 40.34884 | 13.11886 | 32526 ft | 344 kts | 286° |
| 2026-05-08 16:50 | 40.35659 | 13.08930 | 33154 ft | 340 kts | 285° |
| 2026-05-08 16:50 | 40.36418 | 13.06041 | 33787 ft | 336 kts | 285° |
| 2026-05-08 16:51 | 40.37166 | 13.03190 | 34328 ft | 332 kts | 285° |
| 2026-05-08 16:51 | 40.37926 | 13.00270 | 34486 ft | 339 kts | 285° |
| 2026-05-08 16:51 | 40.38686 | 12.97352 | 34620 ft | 345 kts | 285° |
| 2026-05-08 16:51 | 40.39472 | 12.94337 | 34752 ft | 351 kts | 285° |
| 2026-05-08 16:52 | 40.40259 | 12.91314 | 34884 ft | 357 kts | 285° |
| 2026-05-08 16:52 | 40.41068 | 12.88210 | 35106 ft | 359 kts | 285° |
| 2026-05-08 16:52 | 40.41869 | 12.85135 | 35429 ft | 359 kts | 285° |
| 2026-05-08 16:52 | 40.42677 | 12.82037 | 35730 ft | 359 kts | 285° |
| 2026-05-08 16:53 | 40.44278 | 12.75868 | 36231 ft | 361 kts | 285° |
| 2026-05-08 16:53 | 40.45091 | 12.72729 | 36546 ft | 361 kts | 285° |
| 2026-05-08 16:53 | 40.45894 | 12.69622 | 36830 ft | 362 kts | 285° |
| 2026-05-08 16:54 | 40.46699 | 12.66510 | 36985 ft | 364 kts | 286° |
| 2026-05-08 16:54 | 40.47517 | 12.63339 | 36988 ft | 365 kts | 286° |
| 2026-05-08 16:54 | 40.49140 | 12.57052 | 36989 ft | 365 kts | 285° |
| 2026-05-08 16:55 | 40.50758 | 12.50746 | 36991 ft | 366 kts | 286° |
| 2026-05-08 16:55 | 40.52369 | 12.44457 | 36989 ft | 366 kts | 285° |
| 2026-05-08 16:56 | 40.53994 | 12.38105 | 36990 ft | 367 kts | 285° |
| 2026-05-08 16:56 | 40.55603 | 12.31790 | 36991 ft | 367 kts | 285° |
| 2026-05-08 16:57 | 40.57214 | 12.25454 | 36994 ft | 366 kts | 285° |
| 2026-05-08 16:57 | 40.58820 | 12.19117 | 36988 ft | 366 kts | 285° |
| 2026-05-08 16:58 | 40.60406 | 12.12735 | 36986 ft | 366 kts | 282° |
| 2026-05-08 16:58 | 40.61282 | 12.06197 | 36990 ft | 365 kts | 276° |
| 2026-05-08 16:59 | 40.62040 | 11.99621 | 36990 ft | 366 kts | 276° |
| 2026-05-08 16:59 | 40.62799 | 11.93024 | 36992 ft | 366 kts | 276° |
| 2026-05-08 17:00 | 40.63558 | 11.86402 | 36992 ft | 365 kts | 277° |
| 2026-05-08 17:00 | 40.64313 | 11.79811 | 36991 ft | 366 kts | 276° |
| 2026-05-08 17:01 | 40.65066 | 11.73214 | 36992 ft | 366 kts | 276° |
| 2026-05-08 17:01 | 40.65813 | 11.66588 | 36996 ft | 366 kts | 277° |
| 2026-05-08 17:02 | 40.66559 | 11.59998 | 36601 ft | 367 kts | 276° |
| 2026-05-08 17:02 | 40.66930 | 11.56697 | 36144 ft | 362 kts | 276° |
| 2026-05-08 17:02 | 40.67298 | 11.53436 | 35777 ft | 358 kts | 276° |
| 2026-05-08 17:03 | 40.67659 | 11.50203 | 35424 ft | 359 kts | 276° |
| 2026-05-08 17:03 | 40.68021 | 11.46951 | 35063 ft | 360 kts | 276° |
| 2026-05-08 17:03 | 40.68381 | 11.43692 | 34708 ft | 361 kts | 276° |
| 2026-05-08 17:03 | 40.68739 | 11.40463 | 34350 ft | 360 kts | 276° |
| 2026-05-08 17:04 | 40.69099 | 11.37201 | 33739 ft | 361 kts | 276° |
| 2026-05-08 17:04 | 40.69458 | 11.33942 | 32908 ft | 364 kts | 275° |
| 2026-05-08 17:04 | 40.69819 | 11.30630 | 32020 ft | 370 kts | 276° |
| 2026-05-08 17:04 | 40.70184 | 11.27293 | 31140 ft | 374 kts | 276° |
| 2026-05-08 17:05 | 40.70557 | 11.23871 | 30264 ft | 378 kts | 276° |
| 2026-05-08 17:05 | 40.70925 | 11.20502 | 29563 ft | 377 kts | 276° |
| 2026-05-08 17:05 | 40.71292 | 11.17107 | 29009 ft | 373 kts | 276° |
| 2026-05-08 17:05 | 40.71650 | 11.13736 | 28451 ft | 370 kts | 276° |
| 2026-05-08 17:06 | 40.72003 | 11.10401 | 27884 ft | 367 kts | 276° |
| 2026-05-08 17:06 | 40.72349 | 11.07124 | 27319 ft | 364 kts | 276° |
| 2026-05-08 17:06 | 40.72695 | 11.03825 | 26752 ft | 361 kts | 276° |
| 2026-05-08 17:06 | 40.73034 | 11.00595 | 26191 ft | 358 kts | 276° |
| 2026-05-08 17:07 | 40.73371 | 10.97364 | 25642 ft | 355 kts | 276° |
| 2026-05-08 17:07 | 40.73705 | 10.94160 | 25079 ft | 353 kts | 276° |
| 2026-05-08 17:07 | 40.74036 | 10.90965 | 24518 ft | 351 kts | 276° |
| 2026-05-08 17:07 | 40.74360 | 10.87826 | 23981 ft | 348 kts | 276° |
| 2026-05-08 17:08 | 40.74683 | 10.84687 | 23460 ft | 345 kts | 276° |
| 2026-05-08 17:08 | 40.75006 | 10.81557 | 22929 ft | 343 kts | 276° |
| 2026-05-08 17:08 | 40.75319 | 10.78489 | 22415 ft | 340 kts | 277° |
| 2026-05-08 17:08 | 40.75635 | 10.75401 | 21876 ft | 338 kts | 277° |
| 2026-05-08 17:09 | 40.75874 | 10.72334 | 21326 ft | 336 kts | 270° |
| 2026-05-08 17:09 | 40.75720 | 10.69311 | 20809 ft | 334 kts | 265° |
| 2026-05-08 17:09 | 40.75464 | 10.66288 | 20312 ft | 331 kts | 264° |
| 2026-05-08 17:09 | 40.75209 | 10.63290 | 20015 ft | 331 kts | 264° |
| 2026-05-08 17:10 | 40.74965 | 10.60272 | 19718 ft | 330 kts | 265° |
| 2026-05-08 17:10 | 40.74731 | 10.57262 | 19417 ft | 330 kts | 265° |
| 2026-05-08 17:10 | 40.74507 | 10.54297 | 19121 ft | 328 kts | 265° |
| 2026-05-08 17:10 | 40.74285 | 10.51308 | 18827 ft | 327 kts | 265° |
| 2026-05-08 17:11 | 40.74065 | 10.48316 | 18530 ft | 327 kts | 265° |
| 2026-05-08 17:11 | 40.73849 | 10.45374 | 18235 ft | 326 kts | 265° |
| 2026-05-08 17:11 | 40.73631 | 10.42403 | 17940 ft | 325 kts | 265° |
| 2026-05-08 17:11 | 40.73415 | 10.39440 | 17647 ft | 324 kts | 265° |
| 2026-05-08 17:12 | 40.73204 | 10.36535 | 17358 ft | 322 kts | 265° |
| 2026-05-08 17:12 | 40.72987 | 10.33566 | 17065 ft | 322 kts | 265° |
| 2026-05-08 17:12 | 40.72773 | 10.30674 | 16780 ft | 321 kts | 265° |
| 2026-05-08 17:12 | 40.72558 | 10.27742 | 16489 ft | 321 kts | 265° |
| 2026-05-08 17:13 | 40.72342 | 10.24821 | 16200 ft | 321 kts | 265° |
| 2026-05-08 17:13 | 40.72126 | 10.21888 | 15910 ft | 321 kts | 265° |
| 2026-05-08 17:13 | 40.71910 | 10.18993 | 15623 ft | 320 kts | 265° |
| 2026-05-08 17:13 | 40.71692 | 10.16058 | 15329 ft | 320 kts | 265° |
| 2026-05-08 17:14 | 40.71477 | 10.13179 | 15042 ft | 319 kts | 265° |
| 2026-05-08 17:14 | 40.71259 | 10.10258 | 14748 ft | 319 kts | 265° |
| 2026-05-08 17:14 | 40.71044 | 10.07384 | 14462 ft | 318 kts | 265° |
| 2026-05-08 17:14 | 40.70825 | 10.04475 | 14166 ft | 318 kts | 265° |
| 2026-05-08 17:15 | 40.70607 | 10.01581 | 13871 ft | 317 kts | 265° |
| 2026-05-08 17:15 | 40.70388 | 9.98690 | 13576 ft | 317 kts | 265° |
| 2026-05-08 17:15 | 40.70171 | 9.95842 | 13290 ft | 317 kts | 265° |
| 2026-05-08 17:15 | 40.69949 | 9.92934 | 12991 ft | 317 kts | 265° |
| 2026-05-08 17:16 | 40.69730 | 9.90083 | 12707 ft | 316 kts | 265° |
| 2026-05-08 17:16 | 40.69508 | 9.87200 | 12316 ft | 314 kts | 265° |
| 2026-05-08 17:16 | 40.69288 | 9.84358 | 11780 ft | 314 kts | 265° |
| 2026-05-08 17:16 | 40.69064 | 9.81476 | 11252 ft | 314 kts | 265° |
| 2026-05-08 17:17 | 40.68842 | 9.78628 | 10765 ft | 314 kts | 265° |
| 2026-05-08 17:17 | 40.68621 | 9.75795 | 10419 ft | 308 kts | 266° |
| 2026-05-08 17:17 | 40.68406 | 9.73045 | 10186 ft | 297 kts | 266° |
| 2026-05-08 17:17 | 40.68197 | 9.70385 | 9978 ft | 288 kts | 266° |
| 2026-05-08 17:18 | 40.67993 | 9.67794 | 9646 ft | 286 kts | 266° |
| 2026-05-08 17:18 | 40.67788 | 9.65193 | 9236 ft | 285 kts | 266° |
| 2026-05-08 17:18 | 40.67586 | 9.62613 | 8843 ft | 284 kts | 266° |
| 2026-05-08 17:18 | 40.67384 | 9.60055 | 8458 ft | 282 kts | 265° |
| 2026-05-08 17:19 | 40.67180 | 9.57488 | 8045 ft | 281 kts | 265° |
| 2026-05-08 17:19 | 40.66977 | 9.54942 | 7644 ft | 280 kts | 265° |
| 2026-05-08 17:19 | 40.66773 | 9.52373 | 7269 ft | 279 kts | 265° |
| 2026-05-08 17:19 | 40.66569 | 9.49844 | 6853 ft | 279 kts | 265° |
| 2026-05-08 17:20 | 40.66366 | 9.47319 | 6443 ft | 278 kts | 265° |
| 2026-05-08 17:20 | 40.66163 | 9.44796 | 6055 ft | 277 kts | 264° |
| 2026-05-08 17:20 | 40.65958 | 9.42287 | 5808 ft | 270 kts | 264° |
| 2026-05-08 17:20 | 40.65760 | 9.39876 | 5645 ft | 261 kts | 265° |
| 2026-05-08 17:21 | 40.65569 | 9.37546 | 5485 ft | 252 kts | 265° |
| 2026-05-08 17:21 | 40.65386 | 9.35313 | 5321 ft | 244 kts | 265° |
| 2026-05-08 17:21 | 40.65301 | 9.33114 | 5153 ft | 235 kts | 279° |
| 2026-05-08 17:21 | 40.65924 | 9.31198 | 5018 ft | 223 kts | 311° |
| 2026-05-08 17:22 | 40.67075 | 9.29922 | 5017 ft | 218 kts | 326° |
| 2026-05-08 17:22 | 40.68333 | 9.28801 | 5010 ft | 219 kts | 327° |
| 2026-05-08 17:22 | 40.69597 | 9.27674 | 5011 ft | 218 kts | 326° |
| 2026-05-08 17:22 | 40.70852 | 9.26540 | 5014 ft | 218 kts | 326° |
| 2026-05-08 17:23 | 40.72098 | 9.25402 | 5007 ft | 218 kts | 326° |
| 2026-05-08 17:23 | 40.73388 | 9.24401 | 4980 ft | 210 kts | 345° |
| 2026-05-08 17:23 | 40.74780 | 9.24399 | 4984 ft | 197 kts | 20° |
| 2026-05-08 17:23 | 40.75913 | 9.25370 | 5009 ft | 198 kts | 46° |
| 2026-05-08 17:24 | 40.76794 | 9.26762 | 4908 ft | 198 kts | 53° |
| 2026-05-08 17:24 | 40.77604 | 9.28240 | 4636 ft | 199 kts | 54° |
| 2026-05-08 17:24 | 40.78395 | 9.29750 | 4332 ft | 201 kts | 55° |
| 2026-05-08 17:24 | 40.79179 | 9.31264 | 4114 ft | 195 kts | 55° |
| 2026-05-08 17:25 | 40.79937 | 9.32728 | 3801 ft | 194 kts | 54° |
| 2026-05-08 17:25 | 40.80696 | 9.34189 | 3464 ft | 193 kts | 54° |
| 2026-05-08 17:25 | 40.81451 | 9.35649 | 3132 ft | 192 kts | 54° |
| 2026-05-08 17:25 | 40.82211 | 9.37088 | 2842 ft | 190 kts | 53° |
| 2026-05-08 17:26 | 40.82974 | 9.38484 | 2563 ft | 187 kts | 53° |
| 2026-05-08 17:26 | 40.83715 | 9.39886 | 2303 ft | 180 kts | 53° |
| 2026-05-08 17:26 | 40.84378 | 9.41201 | 2055 ft | 168 kts | 55° |
| 2026-05-08 17:26 | 40.85004 | 9.42462 | 1754 ft | 161 kts | 54° |
| 2026-05-08 17:27 | 40.85605 | 9.43636 | 1531 ft | 150 kts | 53° |
| 2026-05-08 17:27 | 40.86184 | 9.44744 | 1282 ft | 142 kts | 53° |
| 2026-05-08 17:27 | 40.86736 | 9.45792 | 1063 ft | 138 kts | 54° |
| 2026-05-08 17:27 | 40.87285 | 9.46829 | 871 ft | 138 kts | 55° |
| 2026-05-08 17:28 | 40.87822 | 9.47858 | 678 ft | 137 kts | 54° |
| 2026-05-08 17:28 | 40.88370 | 9.48896 | 479 ft | 136 kts | 54° |
| 2026-05-08 17:28 | 40.88900 | 9.49906 | 261 ft | 135 kts | 56° |
| 2026-05-08 17:28 | 40.89430 | 9.50927 | 80 ft | 134 kts | 55° |
| 2026-05-08 17:29 | 40.89922 | 9.51869 | 51 ft | 105 kts | 53° |
| 2026-05-08 17:29 | 40.90241 | 9.52476 | 50 ft | 55 kts | 55° |
| 2026-05-08 17:29 | 40.90337 | 9.52659 | 50 ft | 9 kts | 48° |
| 2026-05-08 17:29 | 40.90403 | 9.52687 | 50 ft | 10 kts | 357° |
| 2026-05-08 17:30 | 40.90450 | 9.52627 | 50 ft | 10 kts | 277° |
| 2026-05-08 17:30 | 40.90456 | 9.52529 | 50 ft | 11 kts | 273° |
| 2026-05-08 17:30 | 40.90422 | 9.52430 | 50 ft | 12 kts | 234° |
| 2026-05-08 17:30 | 40.90369 | 9.52329 | 50 ft | 13 kts | 234° |
| 2026-05-08 17:31 | 40.90313 | 9.52221 | 50 ft | 14 kts | 234° |
| 2026-05-08 17:31 | 40.90253 | 9.52107 | 50 ft | 15 kts | 235° |
| 2026-05-08 17:31 | 40.90193 | 9.51993 | 50 ft | 10 kts | 235° |
| 2026-05-08 17:31 | 40.90181 | 9.51900 | 50 ft | 11 kts | 276° |
| 2026-05-08 17:32 | 40.90203 | 9.51822 | 50 ft | 8 kts | 324° |
| 2026-05-08 17:32 | 40.90257 | 9.51818 | 50 ft | 9 kts | 51° |
| 2026-05-08 17:32 | 40.90303 | 9.51857 | 50 ft | 8 kts | 342° |
| 2026-05-08 17:32 | 40.90328 | 9.51831 | 50 ft | 2 kts | 327° |
| 2026-05-08 17:33 | 40.90336 | 9.51833 | 50 ft | 0 kts | 23° |
| 2026-05-08 17:33 | 40.90337 | 9.51834 | 50 ft | 0 kts | 23° |